Time;durP1;ratioP1;P1;durP2;ratioP2;P2;SDS_P1;SDS_P2;PMS_P1;PMS_P2;Temp;Humidity;BMP_temperature;BMP_pressure;BME280_temperature;BME280_humidity;BME280_pressure;Samples;Min_cycle;Max_cycle;Signal;HPM_P1;HPM_P2
2022/07/01 00:01:45;;;;;;;4.00;0.38;;;17.30;99.90;;;;;;6245386;28;20133;-83
2022/07/01 00:04:47;;;;;;;5.90;0.30;;;17.40;99.90;;;;;;6227965;28;20392;-82
2022/07/01 00:07:49;;;;;;;0.90;0.30;;;17.30;99.90;;;;;;6227851;28;20054;-82
2022/07/01 00:10:50;;;;;;;1.55;0.20;;;17.30;99.90;;;;;;6227570;28;20042;-81
2022/07/01 00:13:53;;;;;;;0.40;0.15;;;17.30;99.90;;;;;;6229009;28;20419;-82
2022/07/01 00:16:55;;;;;;;0.60;0.20;;;17.30;99.90;;;;;;6228590;28;20038;-82
2022/07/01 00:19:57;;;;;;;0.75;0.30;;;17.20;99.90;;;;;;6233362;28;20068;-83
2022/07/01 00:22:59;;;;;;;4.50;0.20;;;17.30;99.90;;;;;;6226659;28;20134;-82
2022/07/01 00:26:00;;;;;;;1.77;0.20;;;17.20;99.90;;;;;;6226178;28;20045;-82
2022/07/01 00:29:04;;;;;;;1.48;0.17;;;17.20;99.90;;;;;;6226138;28;20046;-81
2022/07/01 00:32:06;;;;;;;1.83;0.60;;;17.20;99.90;;;;;;6227667;28;20050;-82
2022/07/01 00:35:09;;;;;;;1.27;0.20;;;17.20;99.90;;;;;;6225754;28;20046;-83
2022/07/01 00:38:11;;;;;;;0.65;0.22;;;17.20;99.90;;;;;;6226596;28;20511;-82
2022/07/01 00:41:13;;;;;;;6.75;0.30;;;17.20;99.90;;;;;;6225879;28;20038;-82
2022/07/01 00:44:20;;;;;;;0.65;0.28;;;17.30;99.90;;;;;;6226105;28;20050;-83
2022/07/01 00:47:22;;;;;;;1.50;0.20;;;17.30;99.90;;;;;;6226280;28;20053;-82
2022/07/01 00:50:24;;;;;;;0.40;0.20;;;17.20;99.90;;;;;;6234128;28;20045;-82
2022/07/01 00:53:26;;;;;;;0.55;0.50;;;17.30;99.90;;;;;;6224905;28;20402;-82
2022/07/01 00:56:28;;;;;;;0.47;0.30;;;17.20;99.90;;;;;;6225699;28;20111;-82
2022/07/01 00:59:31;;;;;;;0.17;0.15;;;17.20;99.90;;;;;;6224821;28;20418;-81
2022/07/01 01:02:33;;;;;;;0.65;0.30;;;17.20;99.90;;;;;;6225274;28;20046;-81
2022/07/01 01:05:35;;;;;;;0.47;0.20;;;17.20;99.90;;;;;;6225583;28;20050;-81
2022/07/01 01:08:38;;;;;;;0.65;0.30;;;17.30;99.90;;;;;;6224080;28;20046;-81
2022/07/01 01:11:40;;;;;;;0.38;0.08;;;17.30;99.90;;;;;;6235413;28;20049;-81
2022/07/01 01:14:47;;;;;;;1.25;0.22;;;17.30;99.90;;;;;;6247636;28;20507;-80
2022/07/01 01:17:49;;;;;;;0.40;0.10;;;17.20;99.90;;;;;;6247348;28;20049;-81
2022/07/01 01:20:53;;;;;;;0.75;0.30;;;17.20;99.90;;;;;;6248030;28;20124;-81
2022/07/01 01:23:54;;;;;;;2.80;0.50;;;17.30;99.90;;;;;;6249154;28;20053;-81
2022/07/01 01:26:56;;;;;;;2.65;0.30;;;17.30;99.90;;;;;;6248385;28;20050;-81
2022/07/01 01:29:58;;;;;;;1.95;0.55;;;17.30;99.90;;;;;;6247734;28;20414;-81
2022/07/01 01:33:00;;;;;;;4.80;0.40;;;17.30;99.90;;;;;;6248185;28;20052;-82
2022/07/01 01:36:03;;;;;;;0.75;0.20;;;17.40;99.90;;;;;;6248398;28;20064;-81
2022/07/01 01:39:08;;;;;;;0.57;0.30;;;17.40;99.90;;;;;;6247628;28;20045;-81
2022/07/01 01:42:09;;;;;;;4.10;0.65;;;17.40;99.90;;;;;;6247735;28;20056;-81
2022/07/01 01:45:12;;;;;;;0.50;0.30;;;17.40;99.90;;;;;;6247681;28;20417;-81
2022/07/01 01:48:14;;;;;;;0.95;0.35;;;17.40;99.90;;;;;;6247970;28;20078;-81
2022/07/01 01:51:18;;;;;;;1.02;0.30;;;17.40;99.90;;;;;;6249693;28;20066;-83
2022/07/01 01:54:20;;;;;;;3.38;0.35;;;17.50;99.90;;;;;;6248787;28;20041;-81
2022/07/01 01:57:22;;;;;;;1.63;0.30;;;17.50;99.90;;;;;;6248884;28;20056;-82
2022/07/01 02:00:23;;;;;;;1.17;0.20;;;17.50;99.90;;;;;;6249586;28;20045;-82
2022/07/01 02:03:25;;;;;;;0.40;0.30;;;17.60;99.90;;;;;;6250354;28;20075;-80
2022/07/01 02:06:28;;;;;;;0.68;0.30;;;17.50;99.90;;;;;;6249830;28;20053;-83
2022/07/01 02:09:30;;;;;;;0.98;0.15;;;17.50;99.90;;;;;;6249771;28;20068;-83
2022/07/01 02:12:32;;;;;;;5.28;0.57;;;17.60;99.90;;;;;;6250555;28;20072;-83
2022/07/01 02:15:33;;;;;;;2.50;0.30;;;17.60;99.90;;;;;;6250446;28;20056;-83
2022/07/01 02:18:35;;;;;;;0.28;0.28;;;17.60;99.90;;;;;;6249927;28;20049;-83
2022/07/01 02:21:38;;;;;;;0.75;0.35;;;17.50;99.90;;;;;;6250313;28;20064;-82
2022/07/01 02:24:40;;;;;;;0.32;0.20;;;17.50;99.90;;;;;;6249016;28;20526;-83
2022/07/01 02:27:42;;;;;;;0.30;0.20;;;17.50;99.90;;;;;;6249179;28;20057;-82
2022/07/01 02:30:44;;;;;;;0.57;0.25;;;17.60;99.90;;;;;;6248860;28;20437;-82
2022/07/01 02:33:45;;;;;;;3.78;0.50;;;17.50;99.90;;;;;;6249668;28;20534;-83
2022/07/01 02:36:49;;;;;;;3.50;0.30;;;17.60;99.90;;;;;;6249265;28;20041;-82
2022/07/01 02:39:51;;;;;;;4.32;0.40;;;17.60;99.90;;;;;;6249789;28;20052;-82
2022/07/01 02:42:53;;;;;;;1.65;0.30;;;17.60;99.90;;;;;;6248945;28;20049;-82
2022/07/01 02:45:54;;;;;;;2.13;0.20;;;17.60;99.90;;;;;;6249142;28;20045;-81
2022/07/01 02:48:56;;;;;;;1.98;0.20;;;17.50;99.90;;;;;;6249989;28;20045;-83
2022/07/01 02:51:59;;;;;;;0.68;0.20;;;17.50;99.90;;;;;;6250886;28;20060;-83
2022/07/01 02:55:01;;;;;;;0.45;0.20;;;17.60;99.90;;;;;;6225325;28;20042;-83
2022/07/01 02:58:04;;;;;;;0.75;0.25;;;17.60;99.90;;;;;;6227354;28;20136;-82
2022/07/01 03:01:05;;;;;;;0.45;0.17;;;17.60;99.90;;;;;;6230167;28;20073;-81
2022/07/01 03:04:07;;;;;;;0.38;0.20;;;17.50;99.90;;;;;;6235711;28;20050;-80
2022/07/01 03:07:11;;;;;;;3.17;0.50;;;17.50;99.90;;;;;;6225509;28;20068;-80
2022/07/01 03:10:13;;;;;;;0.30;0.20;;;17.50;99.90;;;;;;6225336;28;20060;-82
2022/07/01 03:13:14;;;;;;;0.50;0.32;;;17.50;99.90;;;;;;6226079;28;20053;-80
2022/07/01 03:16:16;;;;;;;1.10;0.35;;;17.60;99.90;;;;;;6226173;28;20049;-82
2022/07/01 03:19:18;;;;;;;0.50;0.20;;;17.60;99.90;;;;;;6226196;28;20427;-80
2022/07/01 03:22:22;;;;;;;1.30;0.22;;;17.60;99.90;;;;;;6235067;28;20062;-81
2022/07/01 03:25:24;;;;;;;1.17;0.30;;;17.50;99.90;;;;;;6234839;28;20049;-83
2022/07/01 03:28:26;;;;;;;1.77;0.82;;;17.50;99.90;;;;;;6230731;28;20046;-83
2022/07/01 03:31:28;;;;;;;1.52;0.20;;;17.60;99.90;;;;;;6231018;28;20064;-84
2022/07/01 03:34:29;;;;;;;1.30;0.30;;;17.50;99.90;;;;;;6231287;28;20046;-84
2022/07/01 03:37:32;;;;;;;0.65;0.30;;;17.60;99.90;;;;;;6230991;28;20069;-82
2022/07/01 03:40:35;;;;;;;0.50;0.20;;;17.60;99.90;;;;;;6227425;28;20053;-81
2022/07/01 03:43:36;;;;;;;1.08;0.25;;;17.60;99.90;;;;;;6227435;28;20442;-82
2022/07/01 03:46:38;;;;;;;7.53;0.93;;;17.60;99.90;;;;;;6226434;28;20049;-82
2022/07/01 03:49:40;;;;;;;2.45;0.40;;;17.60;99.90;;;;;;6225937;28;20045;-84
2022/07/01 03:52:43;;;;;;;0.55;0.30;;;17.70;99.90;;;;;;6226809;28;20046;-82
2022/07/01 03:55:44;;;;;;;9.52;0.82;;;17.70;99.90;;;;;;6246778;28;20051;-81
2022/07/01 03:58:45;;;;;;;0.70;0.38;;;17.60;99.90;;;;;;6250608;28;20037;-81
2022/07/01 04:01:47;;;;;;;0.25;0.10;;;17.60;99.90;;;;;;6250200;28;20041;-81
2022/07/01 04:04:49;;;;;;;1.42;0.40;;;17.50;99.90;;;;;;6250320;28;20065;-83
2022/07/01 04:07:52;;;;;;;0.57;0.30;;;17.40;99.90;;;;;;6250299;28;20079;-82
2022/07/01 04:10:55;;;;;;;0.90;0.40;;;17.50;99.90;;;;;;6250251;28;20047;-82
2022/07/01 04:13:57;;;;;;;3.22;0.40;;;17.50;99.90;;;;;;6250514;28;20049;-82
2022/07/01 04:16:59;;;;;;;2.22;0.30;;;17.50;99.90;;;;;;6250662;28;20055;-82
2022/07/01 04:20:00;;;;;;;3.03;0.65;;;17.50;99.90;;;;;;6250944;28;20042;-82
2022/07/01 04:23:02;;;;;;;3.33;0.30;;;17.60;99.90;;;;;;6250936;28;20048;-81
2022/07/01 04:26:04;;;;;;;1.02;0.57;;;17.70;99.90;;;;;;6250872;28;20041;-81
2022/07/01 04:29:07;;;;;;;3.55;0.80;;;17.70;99.90;;;;;;6250938;28;20716;-84
2022/07/01 04:32:08;;;;;;;1.52;0.30;;;17.70;99.90;;;;;;6251756;28;20492;-81
2022/07/01 04:35:12;;;;;;;0.50;0.30;;;17.80;99.90;;;;;;6251928;28;20045;-82
2022/07/01 04:38:15;;;;;;;1.10;0.60;;;17.70;99.90;;;;;;6254685;28;20056;-82
2022/07/01 04:44:38;;;;;;;1.88;0.65;;;17.60;99.90;;;;;;6256031;28;20041;-84
2022/07/01 04:47:40;;;;;;;1.17;0.80;;;17.50;99.90;;;;;;6256138;28;20049;-83
2022/07/01 04:50:41;;;;;;;0.73;0.43;;;17.40;99.90;;;;;;6257056;28;20050;-80
2022/07/01 04:53:44;;;;;;;2.78;0.60;;;17.30;99.90;;;;;;6262323;23;20137;-84
2022/07/01 04:56:46;;;;;;;0.98;0.50;;;17.40;99.90;;;;;;6231147;28;20056;-80
2022/07/01 04:59:48;;;;;;;2.08;0.70;;;17.30;99.90;;;;;;6231957;28;20132;-81
2022/07/01 05:02:50;;;;;;;1.75;0.73;;;17.30;99.90;;;;;;6232120;28;20052;-81
2022/07/01 05:05:52;;;;;;;1.67;1.17;;;17.30;99.90;;;;;;6230204;28;20052;-81
2022/07/01 05:08:55;;;;;;;2.85;1.00;;;17.30;99.90;;;;;;6226921;28;20048;-83
2022/07/01 05:11:56;;;;;;;1.60;0.98;;;17.20;99.90;;;;;;6227033;28;20048;-82
2022/07/01 05:14:58;;;;;;;1.27;1.08;;;17.30;99.90;;;;;;6227711;28;20042;-80
2022/07/01 05:24:40;;;;;;;1.65;1.00;;;17.30;99.90;;;;;;6227894;28;20042;-82
2022/07/01 05:27:41;;;;;;;3.75;1.48;;;17.40;99.90;;;;;;6228772;28;20077;-81
2022/07/01 05:30:43;;;;;;;1.65;0.90;;;17.40;99.90;;;;;;6228788;28;20049;-83
2022/07/01 05:33:45;;;;;;;2.08;1.00;;;17.50;99.90;;;;;;6230365;28;20046;-81
2022/07/01 05:36:47;;;;;;;2.13;1.15;;;17.50;99.90;;;;;;6225802;28;20061;-83
2022/07/01 05:39:50;;;;;;;4.03;1.30;;;17.50;99.90;;;;;;6226004;28;20050;-83
2022/07/01 05:42:52;;;;;;;4.43;1.13;;;17.50;99.90;;;;;;6225906;28;20061;-82
2022/07/01 05:45:54;;;;;;;2.00;1.15;;;17.50;99.90;;;;;;6226575;28;20042;-81
2022/07/01 05:48:55;;;;;;;4.57;0.90;;;17.40;99.90;;;;;;6225662;28;20048;-81
2022/07/01 05:51:57;;;;;;;2.10;0.90;;;17.50;99.90;;;;;;6239334;28;20113;-82
2022/07/01 05:55:00;;;;;;;5.88;1.67;;;17.60;99.90;;;;;;6235897;28;20056;-83
2022/07/01 05:58:02;;;;;;;4.65;1.65;;;17.60;99.90;;;;;;6213247;28;20050;-82
2022/07/01 06:01:04;;;;;;;3.55;1.88;;;17.70;99.90;;;;;;6228639;28;20042;-81
2022/07/01 06:04:06;;;;;;;4.70;1.38;;;17.70;99.90;;;;;;6228524;28;20554;-83
2022/07/01 06:07:07;;;;;;;4.13;1.60;;;17.70;99.90;;;;;;6228194;28;20114;-83
2022/07/01 06:10:11;;;;;;;9.27;2.40;;;17.80;99.90;;;;;;6227702;28;20052;-83
2022/07/01 06:13:14;;;;;;;4.72;1.92;;;17.80;99.90;;;;;;6226949;28;20044;-82
2022/07/01 06:16:16;;;;;;;7.25;1.80;;;17.90;99.90;;;;;;6227457;28;20065;-83
2022/07/01 06:19:17;;;;;;;6.57;1.58;;;18.00;99.90;;;;;;6227011;28;20073;-83
2022/07/01 06:22:20;;;;;;;2.17;1.50;;;18.00;99.90;;;;;;6227743;28;20048;-82
2022/07/01 06:25:23;;;;;;;2.15;1.25;;;18.10;99.90;;;;;;6227218;28;20038;-82
2022/07/01 06:28:29;;;;;;;2.45;1.30;;;18.10;99.90;;;;;;6226291;28;20060;-81
2022/07/01 06:31:33;;;;;;;2.53;1.60;;;18.20;99.90;;;;;;6227291;28;20053;-83
2022/07/01 06:34:35;;;;;;;2.45;1.38;;;18.20;99.90;;;;;;6232119;28;20116;-82
2022/07/01 06:37:37;;;;;;;5.32;1.33;;;18.20;99.90;;;;;;6230223;28;20075;-82
2022/07/01 06:40:40;;;;;;;3.05;1.40;;;18.20;99.90;;;;;;6231696;28;20549;-82
2022/07/01 06:43:43;;;;;;;2.25;1.20;;;18.30;99.90;;;;;;6230214;28;20500;-82
2022/07/01 06:46:45;;;;;;;3.95;1.10;;;18.30;99.90;;;;;;6230312;28;20527;-82
2022/07/01 06:49:47;;;;;;;4.57;1.25;;;18.40;99.90;;;;;;6231029;28;20041;-81
2022/07/01 06:52:49;;;;;;;2.78;1.10;;;18.30;99.90;;;;;;6230156;28;20112;-83
2022/07/01 06:55:52;;;;;;;2.30;0.85;;;18.20;99.90;;;;;;6230290;28;20050;-82
2022/07/01 06:58:54;;;;;;;4.65;1.17;;;18.20;99.90;;;;;;6216814;28;20043;-82
2022/07/01 07:01:56;;;;;;;3.45;1.33;;;18.10;99.90;;;;;;6180437;28;20073;-82
2022/07/01 07:04:58;;;;;;;1.73;1.00;;;18.10;99.90;;;;;;6208939;28;20042;-83
2022/07/01 07:07:59;;;;;;;1.38;0.77;;;18.00;99.90;;;;;;6209215;28;20054;-82
2022/07/01 07:11:03;;;;;;;3.08;1.40;;;18.10;99.90;;;;;;6208416;28;20045;-82
2022/07/01 07:14:05;;;;;;;1.50;0.90;;;18.10;99.90;;;;;;6207769;28;20046;-80
2022/07/01 07:17:07;;;;;;;2.28;1.23;;;18.10;99.90;;;;;;6206400;28;20693;-81
2022/07/01 07:20:09;;;;;;;4.75;1.00;;;18.10;99.90;;;;;;6211858;28;20053;-82
2022/07/01 07:23:11;;;;;;;5.80;1.52;;;18.10;99.90;;;;;;6208370;28;20053;-82
2022/07/01 07:26:14;;;;;;;1.40;1.02;;;18.10;99.90;;;;;;6208528;28;20532;-82
2022/07/01 07:29:16;;;;;;;3.30;1.52;;;18.10;99.90;;;;;;6206889;28;20050;-82
2022/07/01 07:32:17;;;;;;;5.70;1.20;;;18.20;99.90;;;;;;6207424;28;20056;-81
2022/07/01 07:35:19;;;;;;;3.75;1.52;;;18.30;99.90;;;;;;6207303;28;20046;-82
2022/07/01 07:38:22;;;;;;;3.25;0.90;;;18.30;99.90;;;;;;6206380;28;20057;-82
2022/07/01 07:41:25;;;;;;;3.85;1.00;;;18.40;99.90;;;;;;6206781;28;20058;-82
2022/07/01 07:44:27;;;;;;;3.25;1.27;;;18.20;99.90;;;;;;6204256;28;20496;-82
2022/07/01 07:47:29;;;;;;;3.70;1.30;;;18.10;99.90;;;;;;6206665;28;20077;-80
2022/07/01 07:50:31;;;;;;;5.43;1.05;;;17.90;99.90;;;;;;6205356;28;20038;-80
2022/07/01 07:53:32;;;;;;;4.80;1.60;;;17.70;99.90;;;;;;6205086;28;20093;-80
2022/07/01 07:56:35;;;;;;;5.95;1.17;;;17.70;99.90;;;;;;6205959;28;20043;-82
2022/07/01 07:59:37;;;;;;;2.58;1.30;;;17.70;99.90;;;;;;6215890;28;20045;-82
2022/07/01 08:02:40;;;;;;;4.13;1.30;;;17.60;99.90;;;;;;6225269;28;20045;-79
2022/07/01 08:05:42;;;;;;;2.85;1.30;;;17.60;99.90;;;;;;6223924;28;20049;-81
2022/07/01 08:08:45;;;;;;;2.75;1.25;;;17.50;99.90;;;;;;6224505;28;20042;-81
2022/07/01 08:11:48;;;;;;;1.90;1.08;;;17.50;99.90;;;;;;6225741;28;20050;-81
2022/07/01 08:14:50;;;;;;;3.65;1.35;;;17.40;99.90;;;;;;6224092;28;20057;-80
2022/07/01 08:17:51;;;;;;;4.68;1.58;;;17.40;99.90;;;;;;6223839;28;20056;-79
2022/07/01 08:20:53;;;;;;;3.22;1.48;;;17.50;99.90;;;;;;6224490;28;20042;-82
2022/07/01 08:23:55;;;;;;;5.80;1.63;;;17.50;99.90;;;;;;6228135;28;20056;-81
2022/07/01 08:26:58;;;;;;;3.97;2.03;;;17.60;99.90;;;;;;6226899;28;20052;-81
2022/07/01 08:30:00;;;;;;;5.57;1.60;;;17.70;99.90;;;;;;6227132;28;20038;-80
2022/07/01 08:33:02;;;;;;;2.78;1.58;;;17.80;99.90;;;;;;6226081;28;20050;-82
2022/07/01 08:36:04;;;;;;;2.10;1.67;;;18.00;99.90;;;;;;6226357;28;20053;-80
2022/07/01 08:39:06;;;;;;;1.60;1.10;;;18.20;99.90;;;;;;6226258;28;20064;-80
2022/07/01 08:42:09;;;;;;;2.83;1.10;;;18.50;99.90;;;;;;6226722;28;20064;-80
2022/07/01 08:45:11;;;;;;;2.65;1.20;;;19.00;99.90;;;;;;6214759;28;20050;-80
2022/07/01 08:48:12;;;;;;;1.45;0.52;;;19.50;99.90;;;;;;6204270;28;20046;-83
2022/07/01 08:51:14;;;;;;;1.80;0.80;;;19.90;99.90;;;;;;6216680;28;20042;-81
2022/07/01 08:54:16;;;;;;;1.65;0.82;;;20.30;99.30;;;;;;6208117;28;20050;-82
2022/07/01 08:57:22;;;;;;;1.23;0.77;;;21.10;98.50;;;;;;6197614;28;20411;-82
2022/07/01 09:00:30;;;;;;;2.60;0.60;;;21.80;96.30;;;;;;6220881;28;20057;-82
2022/07/01 09:03:32;;;;;;;1.42;0.73;;;21.90;95.00;;;;;;6223227;28;20068;-82
2022/07/01 09:06:34;;;;;;;4.63;0.77;;;21.80;94.70;;;;;;6205565;28;20051;-82
2022/07/01 09:09:37;;;;;;;2.45;1.17;;;21.80;95.00;;;;;;6198511;28;20052;-83
2022/07/01 09:12:43;;;;;;;1.30;0.60;;;21.80;94.40;;;;;;6204444;28;20046;-82
2022/07/01 09:15:45;;;;;;;1.85;0.40;;;21.80;93.90;;;;;;6215470;28;20049;-83
2022/07/01 09:19:03;;;;;;;1.52;0.77;;;22.00;93.40;;;;;;6223844;28;20042;-83
2022/07/01 09:22:05;;;;;;;0.82;0.63;;;22.50;93.00;;;;;;6224418;28;20053;-82
2022/07/01 09:25:14;;;;;;;4.13;0.52;;;23.30;92.10;;;;;;6225073;28;20077;-82
2022/07/01 09:28:19;;;;;;;4.57;0.68;;;25.30;90.00;;;;;;6227994;28;20136;-81
2022/07/01 09:31:21;;;;;;;3.38;0.47;;;26.80;81.50;;;;;;6228997;28;20492;-82
2022/07/01 09:34:25;;;;;;;1.10;0.80;;;26.60;78.80;;;;;;6232838;28;20060;-82
2022/07/01 09:37:27;;;;;;;2.85;0.70;;;25.80;78.10;;;;;;6230818;28;20065;-79
2022/07/01 09:40:46;;;;;;;3.80;0.57;;;24.80;80.30;;;;;;6226273;28;20060;-81
2022/07/01 09:43:50;;;;;;;2.30;0.50;;;24.00;83.80;;;;;;6223354;28;20049;-83
2022/07/01 09:46:56;;;;;;;1.20;0.75;;;23.90;86.60;;;;;;6214826;28;20045;-82
2022/07/01 09:49:58;;;;;;;1.15;0.57;;;24.10;85.60;;;;;;6226597;28;20211;-82
2022/07/01 09:53:00;;;;;;;1.25;0.30;;;24.70;82.50;;;;;;6226327;28;20053;-78
2022/07/01 09:56:01;;;;;;;3.67;0.28;;;25.70;78.30;;;;;;6227553;28;20145;-81
2022/07/01 09:59:05;;;;;;;0.77;0.28;;;26.30;75.00;;;;;;6226414;28;20056;-82
2022/07/01 10:02:08;;;;;;;4.65;0.82;;;26.40;72.80;;;;;;6212902;28;20042;-82
2022/07/01 10:05:16;;;;;;;2.00;0.50;;;26.30;71.60;;;;;;6225459;28;20042;-81
2022/07/01 10:08:51;;;;;;;2.47;0.40;;;26.60;70.00;;;;;;6224273;28;20046;-81
2022/07/01 10:12:11;;;;;;;1.45;0.40;;;27.20;68.30;;;;;;6224825;28;20057;-82
2022/07/01 10:15:19;;;;;;;0.73;0.30;;;27.30;66.30;;;;;;6223037;28;20046;-82
2022/07/01 10:18:22;;;;;;;1.08;0.40;;;27.60;66.30;;;;;;6222125;28;20050;-81
2022/07/01 10:21:28;;;;;;;0.32;0.20;;;28.00;64.80;;;;;;6221697;28;20520;-81
2022/07/01 10:24:30;;;;;;;1.52;0.40;;;27.90;62.70;;;;;;6221938;28;20054;-82
2022/07/01 10:27:32;;;;;;;0.73;0.40;;;27.40;63.30;;;;;;6222489;28;20053;-81
2022/07/01 10:30:36;;;;;;;0.52;0.20;;;27.30;64.00;;;;;;6223073;28;20081;-81
2022/07/01 10:33:44;;;;;;;1.77;0.20;;;27.60;64.10;;;;;;6222952;28;20057;-81
2022/07/01 10:36:46;;;;;;;0.52;0.20;;;27.60;62.60;;;;;;6222918;28;20049;-82
2022/07/01 10:39:58;;;;;;;4.40;0.65;;;27.30;63.40;;;;;;6223720;28;20122;-82
2022/07/01 10:43:00;;;;;;;1.00;0.30;;;26.80;64.40;;;;;;6226441;28;20054;-82
2022/07/01 10:46:03;;;;;;;2.30;0.30;;;26.40;64.40;;;;;;6225637;28;20096;-82
2022/07/01 10:49:05;;;;;;;2.15;0.40;;;26.50;64.40;;;;;;6227600;28;20046;-81
2022/07/01 10:52:09;;;;;;;2.05;0.32;;;27.10;62.60;;;;;;6227601;28;20059;-82
2022/07/01 10:55:11;;;;;;;1.65;0.30;;;27.30;62.60;;;;;;6255854;23;20581;-82
2022/07/01 10:58:12;;;;;;;0.68;0.25;;;27.40;61.20;;;;;;6234609;28;20046;-82
2022/07/01 11:01:19;;;;;;;1.75;0.40;;;27.40;60.50;;;;;;6234307;28;20046;-82
2022/07/01 11:04:20;;;;;;;2.17;0.20;;;27.60;58.90;;;;;;6224876;28;20050;-83
2022/07/01 11:07:25;;;;;;;0.75;0.20;;;27.90;57.40;;;;;;6212492;28;20057;-83
2022/07/01 11:10:27;;;;;;;1.65;1.23;;;28.10;56.70;;;;;;6210233;28;20057;-82
2022/07/01 11:13:30;;;;;;;3.33;0.47;;;28.20;55.80;;;;;;6210947;28;20051;-83
2022/07/01 11:16:35;;;;;;;0.65;0.30;;;28.50;55.20;;;;;;6210518;28;20054;-83
2022/07/01 11:19:37;;;;;;;0.90;0.20;;;28.80;55.00;;;;;;6214542;28;20042;-82
2022/07/01 11:22:40;;;;;;;0.68;0.30;;;28.50;52.80;;;;;;6218362;28;20055;-82
2022/07/01 11:25:42;;;;;;;0.50;0.30;;;27.80;54.90;;;;;;6221562;28;20043;-83
2022/07/01 11:28:43;;;;;;;0.43;0.17;;;27.70;55.20;;;;;;6216814;28;20057;-83
2022/07/01 11:31:47;;;;;;;0.30;0.10;;;27.70;55.60;;;;;;6216904;28;20502;-82
2022/07/01 11:34:50;;;;;;;0.57;0.13;;;27.70;54.80;;;;;;6215087;28;20106;-83
2022/07/01 11:41:20;;;;;;;2.38;0.50;;;27.40;55.00;;;;;;6213350;28;20038;-81
2022/07/01 11:44:32;;;;;;;1.08;0.40;;;27.10;56.20;;;;;;6212590;28;20051;-81
2022/07/01 11:47:35;;;;;;;1.98;0.32;;;26.80;56.70;;;;;;6210201;28;20115;-82
2022/07/01 11:50:38;;;;;;;3.55;0.28;;;26.50;57.40;;;;;;6200168;28;20516;-82
2022/07/01 11:53:41;;;;;;;1.92;0.47;;;26.30;58.70;;;;;;6208697;28;20057;-83
2022/07/01 11:56:45;;;;;;;3.80;0.43;;;26.40;59.50;;;;;;6212788;28;20052;-83
2022/07/01 11:59:49;;;;;;;1.60;0.30;;;26.50;57.20;;;;;;6210134;28;20507;-82
2022/07/01 12:02:52;;;;;;;1.45;0.85;;;26.20;56.70;;;;;;6206479;28;20057;-81
2022/07/01 12:05:54;;;;;;;2.35;0.40;;;26.10;57.00;;;;;;6207472;28;20052;-82
2022/07/01 12:08:57;;;;;;;1.42;0.55;;;26.10;58.40;;;;;;6206823;28;20057;-81
2022/07/01 12:11:59;;;;;;;3.55;0.30;;;26.50;57.90;;;;;;6205716;28;20050;-80
2022/07/01 12:15:01;;;;;;;5.07;0.65;;;26.70;57.80;;;;;;6205484;28;20061;-81
2022/07/01 12:18:07;;;;;;;1.60;0.68;;;26.90;57.50;;;;;;6206495;28;20070;-83
2022/07/01 12:21:09;;;;;;;1.13;0.40;;;26.90;56.20;;;;;;6198438;28;20044;-83
2022/07/01 12:24:12;;;;;;;0.93;0.55;;;26.60;56.90;;;;;;6205729;28;20057;-82
2022/07/01 12:27:15;;;;;;;1.42;0.30;;;26.60;57.90;;;;;;6207691;28;20050;-82
2022/07/01 12:30:32;;;;;;;4.43;0.77;;;26.60;56.20;;;;;;6210835;28;20054;-81
2022/07/01 12:33:37;;;;;;;1.38;0.43;;;26.60;57.20;;;;;;6209095;28;20053;-84
2022/07/01 12:36:47;;;;;;;0.82;0.45;;;26.70;57.00;;;;;;6209285;28;20042;-83
2022/07/01 12:39:51;;;;;;;1.23;0.20;;;27.00;56.00;;;;;;6210395;28;20058;-82
2022/07/01 12:42:53;;;;;;;0.40;0.25;;;26.80;54.70;;;;;;6210478;28;20058;-81
2022/07/01 12:45:54;;;;;;;0.93;0.20;;;26.90;56.40;;;;;;6210367;28;20053;-82
2022/07/01 12:48:58;;;;;;;3.85;0.32;;;26.80;54.90;;;;;;6208789;28;20056;-82
2022/07/01 12:52:00;;;;;;;0.95;0.38;;;26.80;54.50;;;;;;6209387;28;20446;-80
2022/07/01 12:55:01;;;;;;;1.75;0.35;;;26.90;55.80;;;;;;6208071;28;20169;-80
2022/07/01 12:58:05;;;;;;;0.95;0.28;;;27.30;53.60;;;;;;6202870;28;20050;-80
2022/07/01 13:01:07;;;;;;;1.75;0.30;;;27.70;53.50;;;;;;6207629;28;20046;-80
2022/07/01 13:04:10;;;;;;;0.68;0.38;;;28.20;51.20;;;;;;6205550;28;20050;-81
2022/07/01 13:07:12;;;;;;;2.85;0.43;;;28.40;51.10;;;;;;6205297;28;20050;-80
2022/07/01 13:10:15;;;;;;;1.83;0.40;;;28.10;51.10;;;;;;6207364;28;20042;-80
2022/07/01 13:13:17;;;;;;;4.35;0.60;;;27.90;51.70;;;;;;6208362;28;20216;-82
2022/07/01 13:16:19;;;;;;;2.25;0.38;;;28.00;52.10;;;;;;6206439;28;20114;-80
2022/07/01 13:19:22;;;;;;;2.40;0.45;;;28.40;49.30;;;;;;6195124;28;20093;-79
2022/07/01 13:22:24;;;;;;;3.30;0.75;;;28.80;49.00;;;;;;6203784;28;20419;-80
2022/07/01 13:25:26;;;;;;;0.55;0.10;;;29.40;48.00;;;;;;6204180;28;20061;-82
2022/07/01 13:28:31;;;;;;;3.80;0.25;;;30.00;45.90;;;;;;6204915;28;20631;-82
2022/07/01 13:31:33;;;;;;;1.17;0.20;;;30.30;45.60;;;;;;6204899;28;20053;-81
2022/07/01 13:34:37;;;;;;;0.95;0.28;;;30.50;44.40;;;;;;6204475;28;20042;-82
2022/07/01 13:37:40;;;;;;;2.17;0.22;;;30.40;44.50;;;;;;6201307;28;20855;-82
2022/07/01 13:40:42;;;;;;;1.27;0.25;;;30.30;44.50;;;;;;6202428;28;20050;-82
2022/07/01 13:43:48;;;;;;;3.03;0.22;;;29.90;44.80;;;;;;6203020;28;20053;-82
2022/07/01 13:46:50;;;;;;;2.90;0.40;;;29.40;46.10;;;;;;6201461;28;20463;-81
2022/07/01 13:49:53;;;;;;;0.82;0.30;;;29.30;45.90;;;;;;6191204;28;20046;-82
2022/07/01 13:52:55;;;;;;;0.82;0.28;;;29.60;46.10;;;;;;6187753;28;20046;-80
2022/07/01 13:55:57;;;;;;;1.17;0.25;;;29.80;46.30;;;;;;6189579;28;20061;-82
2022/07/01 13:58:59;;;;;;;2.72;0.30;;;29.90;46.70;;;;;;6179075;28;20137;-81
2022/07/01 14:02:01;;;;;;;0.55;0.20;;;30.00;45.80;;;;;;6175872;28;20049;-80
2022/07/01 14:05:04;;;;;;;0.60;0.20;;;29.90;45.60;;;;;;6189857;28;20153;-83
2022/07/01 14:08:06;;;;;;;2.92;0.28;;;29.40;46.10;;;;;;6206579;28;20058;-82
2022/07/01 14:11:08;;;;;;;0.82;0.20;;;29.30;46.40;;;;;;6204495;28;20046;-81
2022/07/01 14:14:10;;;;;;;0.20;0.10;;;29.20;45.70;;;;;;6205038;28;20050;-82
2022/07/01 14:17:11;;;;;;;0.90;0.10;;;29.00;46.00;;;;;;6204303;28;20064;-81
2022/07/01 14:20:14;;;;;;;0.50;0.22;;;28.90;47.00;;;;;;6198020;28;20052;-81
2022/07/01 14:23:16;;;;;;;0.68;0.20;;;28.90;46.50;;;;;;6206025;28;20047;-81
2022/07/01 14:26:18;;;;;;;0.65;0.10;;;28.60;47.60;;;;;;6202639;28;20047;-82
2022/07/01 14:29:20;;;;;;;2.75;0.40;;;28.20;47.50;;;;;;6202604;28;20043;-80
2022/07/01 14:32:26;;;;;;;1.15;0.20;;;27.60;48.60;;;;;;6203044;28;20040;-80
2022/07/01 14:35:29;;;;;;;0.93;0.10;;;27.20;49.50;;;;;;6202195;28;20047;-81
2022/07/01 14:38:31;;;;;;;3.58;0.38;;;26.70;50.30;;;;;;6200296;28;20057;-81
2022/07/01 14:41:33;;;;;;;3.38;0.80;;;26.30;51.00;;;;;;6202666;28;20061;-81
2022/07/01 14:44:34;;;;;;;1.13;0.20;;;26.20;51.50;;;;;;6201487;28;20480;-82
2022/07/01 14:47:36;;;;;;;2.15;0.43;;;25.90;52.20;;;;;;6201803;28;20042;-81
2022/07/01 14:50:40;;;;;;;0.75;0.20;;;25.80;53.60;;;;;;6193552;28;20050;-81
2022/07/01 14:53:42;;;;;;;0.65;0.32;;;25.90;53.30;;;;;;6203677;28;20050;-81
2022/07/01 14:56:44;;;;;;;2.10;0.45;;;25.90;53.40;;;;;;6205533;28;20038;-81
2022/07/01 14:59:46;;;;;;;1.10;0.15;;;26.00;53.40;;;;;;6205153;28;20052;-80
2022/07/01 15:02:48;;;;;;;1.42;0.28;;;26.10;52.50;;;;;;6204797;28;20042;-81
2022/07/01 15:05:52;;;;;;;1.85;0.30;;;26.10;52.80;;;;;;6203786;28;20046;-81
2022/07/01 15:08:54;;;;;;;0.30;0.20;;;26.10;52.80;;;;;;6180132;28;20042;-82
2022/07/01 15:11:55;;;;;;;0.57;0.28;;;26.10;52.30;;;;;;6181075;28;20411;-82
2022/07/01 15:14:57;;;;;;;1.05;0.20;;;26.20;52.70;;;;;;6181315;28;20047;-82
2022/07/01 15:17:59;;;;;;;0.93;0.30;;;26.30;53.00;;;;;;6189268;28;20046;-80
2022/07/01 15:21:02;;;;;;;1.92;0.28;;;26.50;52.00;;;;;;6200811;28;20197;-81
2022/07/01 15:24:04;;;;;;;1.30;0.20;;;26.70;52.80;;;;;;6207233;28;20047;-81
2022/07/01 15:27:07;;;;;;;4.22;2.30;;;26.90;52.10;;;;;;6207357;28;20409;-82
2022/07/01 15:30:10;;;;;;;1.50;0.93;;;27.10;50.50;;;;;;6206335;28;20094;-80
2022/07/01 15:33:12;;;;;;;1.80;0.50;;;27.30;50.50;;;;;;6206744;28;20047;-80
2022/07/01 15:36:15;;;;;;;0.77;0.20;;;27.60;50.90;;;;;;6203516;28;20429;-80
2022/07/01 15:39:17;;;;;;;0.52;0.20;;;27.90;49.60;;;;;;6205474;28;20055;-80
2022/07/01 15:42:21;;;;;;;1.02;0.20;;;28.10;48.60;;;;;;6208654;28;20049;-82
2022/07/01 15:45:23;;;;;;;1.75;0.22;;;28.40;47.90;;;;;;6204427;28;20120;-81
2022/07/01 15:48:24;;;;;;;1.05;0.30;;;28.40;48.10;;;;;;6201519;28;20046;-80
2022/07/01 15:51:28;;;;;;;1.02;0.47;;;28.30;47.90;;;;;;6202363;28;20101;-82
2022/07/01 15:54:30;;;;;;;1.17;0.20;;;28.30;47.60;;;;;;6203640;28;20046;-82
2022/07/01 15:57:31;;;;;;;0.85;0.25;;;28.30;47.80;;;;;;6208428;28;20042;-80
2022/07/01 16:00:33;;;;;;;1.88;0.52;;;28.30;48.50;;;;;;6205200;28;20061;-81
2022/07/01 16:03:35;;;;;;;3.83;0.22;;;28.30;48.00;;;;;;6203424;28;20105;-82
2022/07/01 16:06:38;;;;;;;1.80;0.20;;;28.20;48.20;;;;;;6200894;28;20419;-79